sensor_id;sensor_type;location;lat;lon;timestamp;P1;durP1;ratioP1;P2;durP2;ratioP2
14007;SDS011;61651;45.508;12.232;2022-10-31T00:02:06;51.38;;;37.85;;
14007;SDS011;61651;45.508;12.232;2022-10-31T00:05:08;48.35;;;38.15;;
14007;SDS011;61651;45.508;12.232;2022-10-31T00:08:10;55.10;;;37.40;;
14007;SDS011;61651;45.508;12.232;2022-10-31T00:11:12;44.22;;;36.65;;
14007;SDS011;61651;45.508;12.232;2022-10-31T00:14:16;47.33;;;36.65;;
14007;SDS011;61651;45.508;12.232;2022-10-31T00:17:18;47.72;;;37.10;;
14007;SDS011;61651;45.508;12.232;2022-10-31T00:20:20;51.10;;;37.00;;
14007;SDS011;61651;45.508;12.232;2022-10-31T00:23:22;45.13;;;36.83;;
14007;SDS011;61651;45.508;12.232;2022-10-31T00:26:24;50.90;;;38.47;;
14007;SDS011;61651;45.508;12.232;2022-10-31T00:29:29;54.25;;;39.55;;
14007;SDS011;61651;45.508;12.232;2022-10-31T00:32:31;48.42;;;37.47;;
14007;SDS011;61651;45.508;12.232;2022-10-31T00:35:33;46.10;;;37.38;;
14007;SDS011;61651;45.508;12.232;2022-10-31T00:38:35;50.03;;;36.60;;
14007;SDS011;61651;45.508;12.232;2022-10-31T00:41:37;44.50;;;35.88;;
14007;SDS011;61651;45.508;12.232;2022-10-31T00:44:40;45.90;;;37.08;;
14007;SDS011;61651;45.508;12.232;2022-10-31T00:47:42;47.83;;;34.80;;
14007;SDS011;61651;45.508;12.232;2022-10-31T00:50:44;47.45;;;36.45;;
14007;SDS011;61651;45.508;12.232;2022-10-31T00:53:46;42.58;;;34.50;;
14007;SDS011;61651;45.508;12.232;2022-10-31T00:56:48;46.38;;;34.55;;
14007;SDS011;61651;45.508;12.232;2022-10-31T00:59:52;44.20;;;34.65;;
14007;SDS011;61651;45.508;12.232;2022-10-31T01:02:54;44.60;;;33.97;;
14007;SDS011;61651;45.508;12.232;2022-10-31T01:05:57;43.15;;;33.45;;
14007;SDS011;61651;45.508;12.232;2022-10-31T01:09:00;43.83;;;34.45;;
14007;SDS011;61651;45.508;12.232;2022-10-31T01:12:02;38.75;;;31.77;;
14007;SDS011;61651;45.508;12.232;2022-10-31T01:15:06;48.45;;;34.08;;
14007;SDS011;61651;45.508;12.232;2022-10-31T01:18:10;43.47;;;35.08;;
14007;SDS011;61651;45.508;12.232;2022-10-31T01:21:13;42.38;;;32.53;;
14007;SDS011;61651;45.508;12.232;2022-10-31T01:24:16;41.15;;;31.73;;
14007;SDS011;61651;45.508;12.232;2022-10-31T01:27:18;38.67;;;30.13;;
14007;SDS011;61651;45.508;12.232;2022-10-31T01:30:22;42.92;;;31.48;;
14007;SDS011;61651;45.508;12.232;2022-10-31T01:33:24;59.78;;;39.03;;
14007;SDS011;61651;45.508;12.232;2022-10-31T01:36:26;51.33;;;36.55;;
14007;SDS011;61651;45.508;12.232;2022-10-31T01:39:29;43.97;;;36.65;;
14007;SDS011;61651;45.508;12.232;2022-10-31T01:42:31;60.60;;;37.30;;
14007;SDS011;61651;45.508;12.232;2022-10-31T01:45:35;47.70;;;36.42;;
14007;SDS011;61651;45.508;12.232;2022-10-31T01:48:37;49.30;;;35.88;;
14007;SDS011;61651;45.508;12.232;2022-10-31T01:51:43;48.47;;;37.05;;
14007;SDS011;61651;45.508;12.232;2022-10-31T01:54:50;50.25;;;38.83;;
14007;SDS011;61651;45.508;12.232;2022-10-31T01:57:55;51.05;;;38.45;;
14007;SDS011;61651;45.508;12.232;2022-10-31T02:01:02;51.63;;;36.65;;
14007;SDS011;61651;45.508;12.232;2022-10-31T02:04:05;45.42;;;36.80;;
14007;SDS011;61651;45.508;12.232;2022-10-31T02:07:09;43.00;;;35.65;;
14007;SDS011;61651;45.508;12.232;2022-10-31T02:10:14;47.22;;;36.03;;
14007;SDS011;61651;45.508;12.232;2022-10-31T02:13:17;46.30;;;36.50;;
14007;SDS011;61651;45.508;12.232;2022-10-31T02:16:22;47.97;;;35.58;;
14007;SDS011;61651;45.508;12.232;2022-10-31T02:19:25;43.95;;;34.85;;
14007;SDS011;61651;45.508;12.232;2022-10-31T02:22:35;47.47;;;36.22;;
14007;SDS011;61651;45.508;12.232;2022-10-31T02:25:53;44.97;;;35.00;;
14007;SDS011;61651;45.508;12.232;2022-10-31T02:29:26;43.72;;;35.65;;
14007;SDS011;61651;45.508;12.232;2022-10-31T02:32:54;40.60;;;32.72;;
14007;SDS011;61651;45.508;12.232;2022-10-31T02:36:06;39.58;;;32.85;;
14007;SDS011;61651;45.508;12.232;2022-10-31T02:39:17;40.20;;;33.35;;
14007;SDS011;61651;45.508;12.232;2022-10-31T02:42:25;41.67;;;33.22;;
14007;SDS011;61651;45.508;12.232;2022-10-31T02:45:35;39.53;;;32.45;;
14007;SDS011;61651;45.508;12.232;2022-10-31T02:48:45;40.55;;;31.83;;
14007;SDS011;61651;45.508;12.232;2022-10-31T02:51:49;38.42;;;31.90;;
14007;SDS011;61651;45.508;12.232;2022-10-31T02:54:52;37.25;;;31.42;;
14007;SDS011;61651;45.508;12.232;2022-10-31T02:57:56;38.25;;;31.48;;
14007;SDS011;61651;45.508;12.232;2022-10-31T03:01:08;37.70;;;31.25;;
14007;SDS011;61651;45.508;12.232;2022-10-31T03:08:05;30.95;;;27.10;;
14007;SDS011;61651;45.508;12.232;2022-10-31T03:11:14;35.22;;;30.00;;
14007;SDS011;61651;45.508;12.232;2022-10-31T03:14:19;33.20;;;29.48;;
14007;SDS011;61651;45.508;12.232;2022-10-31T03:17:26;35.63;;;27.55;;
14007;SDS011;61651;45.508;12.232;2022-10-31T03:20:36;34.13;;;29.02;;
14007;SDS011;61651;45.508;12.232;2022-10-31T03:23:41;32.47;;;27.10;;
14007;SDS011;61651;45.508;12.232;2022-10-31T03:26:46;33.40;;;29.60;;
14007;SDS011;61651;45.508;12.232;2022-10-31T03:29:51;32.45;;;28.20;;
14007;SDS011;61651;45.508;12.232;2022-10-31T03:32:56;38.67;;;31.40;;
14007;SDS011;61651;45.508;12.232;2022-10-31T03:36:03;33.92;;;28.92;;
14007;SDS011;61651;45.508;12.232;2022-10-31T03:39:10;33.53;;;27.27;;
14007;SDS011;61651;45.508;12.232;2022-10-31T03:42:15;36.50;;;30.35;;
14007;SDS011;61651;45.508;12.232;2022-10-31T03:45:20;32.75;;;28.65;;
14007;SDS011;61651;45.508;12.232;2022-10-31T03:48:25;36.08;;;30.20;;
14007;SDS011;61651;45.508;12.232;2022-10-31T03:51:30;31.85;;;28.33;;
14007;SDS011;61651;45.508;12.232;2022-10-31T03:54:40;34.20;;;26.77;;
14007;SDS011;61651;45.508;12.232;2022-10-31T03:57:45;29.90;;;26.42;;
14007;SDS011;61651;45.508;12.232;2022-10-31T04:00:53;29.52;;;26.48;;
14007;SDS011;61651;45.508;12.232;2022-10-31T04:03:58;29.40;;;26.30;;
14007;SDS011;61651;45.508;12.232;2022-10-31T04:07:02;32.10;;;28.58;;
14007;SDS011;61651;45.508;12.232;2022-10-31T04:10:07;31.80;;;27.25;;
14007;SDS011;61651;45.508;12.232;2022-10-31T04:13:13;30.73;;;27.48;;
14007;SDS011;61651;45.508;12.232;2022-10-31T04:16:18;28.92;;;25.92;;
14007;SDS011;61651;45.508;12.232;2022-10-31T04:19:23;26.20;;;23.48;;
14007;SDS011;61651;45.508;12.232;2022-10-31T04:22:26;26.85;;;24.17;;
14007;SDS011;61651;45.508;12.232;2022-10-31T04:25:28;27.05;;;24.35;;
14007;SDS011;61651;45.508;12.232;2022-10-31T04:28:30;25.35;;;22.75;;
14007;SDS011;61651;45.508;12.232;2022-10-31T04:31:33;27.75;;;24.90;;
14007;SDS011;61651;45.508;12.232;2022-10-31T04:34:35;25.55;;;22.85;;
14007;SDS011;61651;45.508;12.232;2022-10-31T04:37:39;26.70;;;23.88;;
14007;SDS011;61651;45.508;12.232;2022-10-31T04:40:41;26.23;;;23.42;;
14007;SDS011;61651;45.508;12.232;2022-10-31T04:43:42;25.10;;;22.60;;
14007;SDS011;61651;45.508;12.232;2022-10-31T04:46:44;25.33;;;21.08;;
14007;SDS011;61651;45.508;12.232;2022-10-31T04:49:46;24.70;;;22.05;;
14007;SDS011;61651;45.508;12.232;2022-10-31T04:52:50;24.60;;;22.10;;
14007;SDS011;61651;45.508;12.232;2022-10-31T04:55:52;28.63;;;24.17;;
14007;SDS011;61651;45.508;12.232;2022-10-31T04:58:54;28.15;;;23.35;;
14007;SDS011;61651;45.508;12.232;2022-10-31T05:01:56;25.15;;;22.08;;
14007;SDS011;61651;45.508;12.232;2022-10-31T05:04:58;26.85;;;22.73;;
14007;SDS011;61651;45.508;12.232;2022-10-31T05:08:02;25.13;;;22.48;;
14007;SDS011;61651;45.508;12.232;2022-10-31T05:11:04;24.92;;;22.55;;
14007;SDS011;61651;45.508;12.232;2022-10-31T05:14:06;24.40;;;21.80;;
14007;SDS011;61651;45.508;12.232;2022-10-31T05:17:08;22.95;;;20.65;;
14007;SDS011;61651;45.508;12.232;2022-10-31T05:20:11;24.40;;;21.83;;
14007;SDS011;61651;45.508;12.232;2022-10-31T05:23:15;24.58;;;22.02;;
14007;SDS011;61651;45.508;12.232;2022-10-31T05:26:17;22.58;;;20.35;;
14007;SDS011;61651;45.508;12.232;2022-10-31T05:29:19;23.02;;;20.77;;
14007;SDS011;61651;45.508;12.232;2022-10-31T05:32:21;23.33;;;20.83;;
14007;SDS011;61651;45.508;12.232;2022-10-31T05:35:24;22.08;;;19.52;;
14007;SDS011;61651;45.508;12.232;2022-10-31T05:38:29;23.17;;;20.67;;
14007;SDS011;61651;45.508;12.232;2022-10-31T05:41:31;23.13;;;20.70;;
14007;SDS011;61651;45.508;12.232;2022-10-31T05:44:33;24.25;;;21.77;;
14007;SDS011;61651;45.508;12.232;2022-10-31T05:47:35;23.77;;;21.20;;
14007;SDS011;61651;45.508;12.232;2022-10-31T05:50:37;24.02;;;21.63;;
14007;SDS011;61651;45.508;12.232;2022-10-31T05:53:40;23.63;;;21.20;;
14007;SDS011;61651;45.508;12.232;2022-10-31T05:56:42;22.98;;;19.70;;
14007;SDS011;61651;45.508;12.232;2022-10-31T05:59:44;23.45;;;20.95;;
14007;SDS011;61651;45.508;12.232;2022-10-31T06:02:46;21.67;;;19.42;;
14007;SDS011;61651;45.508;12.232;2022-10-31T06:05:48;25.55;;;21.67;;
14007;SDS011;61651;45.508;12.232;2022-10-31T06:08:52;21.42;;;19.42;;
14007;SDS011;61651;45.508;12.232;2022-10-31T06:11:54;24.08;;;21.67;;
14007;SDS011;61651;45.508;12.232;2022-10-31T06:14:56;24.50;;;21.88;;
14007;SDS011;61651;45.508;12.232;2022-10-31T06:18:01;23.80;;;21.45;;
14007;SDS011;61651;45.508;12.232;2022-10-31T06:21:05;22.48;;;19.83;;
14007;SDS011;61651;45.508;12.232;2022-10-31T06:24:08;22.00;;;19.65;;
14007;SDS011;61651;45.508;12.232;2022-10-31T06:27:10;21.70;;;19.55;;
14007;SDS011;61651;45.508;12.232;2022-10-31T06:30:12;22.70;;;20.33;;
14007;SDS011;61651;45.508;12.232;2022-10-31T06:33:15;21.98;;;19.35;;
14007;SDS011;61651;45.508;12.232;2022-10-31T06:36:17;22.55;;;20.25;;
14007;SDS011;61651;45.508;12.232;2022-10-31T06:39:20;23.23;;;20.92;;
14007;SDS011;61651;45.508;12.232;2022-10-31T06:42:22;24.85;;;22.25;;
14007;SDS011;61651;45.508;12.232;2022-10-31T06:45:24;22.20;;;20.00;;
14007;SDS011;61651;45.508;12.232;2022-10-31T06:48:27;21.92;;;19.73;;
14007;SDS011;61651;45.508;12.232;2022-10-31T06:51:28;25.00;;;22.40;;
14007;SDS011;61651;45.508;12.232;2022-10-31T06:54:32;22.10;;;19.90;;
14007;SDS011;61651;45.508;12.232;2022-10-31T06:57:34;20.80;;;18.80;;
14007;SDS011;61651;45.508;12.232;2022-10-31T07:00:36;23.30;;;20.98;;
14007;SDS011;61651;45.508;12.232;2022-10-31T07:03:38;22.95;;;19.40;;
14007;SDS011;61651;45.508;12.232;2022-10-31T07:06:40;20.98;;;18.85;;
14007;SDS011;61651;45.508;12.232;2022-10-31T07:09:44;21.00;;;18.90;;
14007;SDS011;61651;45.508;12.232;2022-10-31T07:12:46;19.20;;;17.40;;
14007;SDS011;61651;45.508;12.232;2022-10-31T07:15:48;19.75;;;17.90;;
14007;SDS011;61651;45.508;12.232;2022-10-31T07:18:50;15.90;;;14.40;;
14007;SDS011;61651;45.508;12.232;2022-10-31T07:21:52;15.88;;;14.38;;
14007;SDS011;61651;45.508;12.232;2022-10-31T07:24:55;16.95;;;14.85;;
14007;SDS011;61651;45.508;12.232;2022-10-31T07:27:57;15.45;;;13.93;;
14007;SDS011;61651;45.508;12.232;2022-10-31T07:30:59;16.38;;;14.20;;
14007;SDS011;61651;45.508;12.232;2022-10-31T07:34:01;14.88;;;13.48;;
14007;SDS011;61651;45.508;12.232;2022-10-31T07:37:03;17.40;;;15.70;;
14007;SDS011;61651;45.508;12.232;2022-10-31T07:40:07;16.40;;;14.70;;
14007;SDS011;61651;45.508;12.232;2022-10-31T07:43:10;17.73;;;15.98;;
14007;SDS011;61651;45.508;12.232;2022-10-31T07:46:12;16.30;;;14.77;;
14007;SDS011;61651;45.508;12.232;2022-10-31T07:49:14;18.73;;;16.88;;
14007;SDS011;61651;45.508;12.232;2022-10-31T07:52:16;17.33;;;15.52;;
14007;SDS011;61651;45.508;12.232;2022-10-31T07:55:20;17.73;;;15.80;;
14007;SDS011;61651;45.508;12.232;2022-10-31T07:58:22;24.40;;;17.05;;
14007;SDS011;61651;45.508;12.232;2022-10-31T08:01:25;18.63;;;16.05;;
14007;SDS011;61651;45.508;12.232;2022-10-31T08:04:27;18.30;;;16.10;;
14007;SDS011;61651;45.508;12.232;2022-10-31T08:07:29;22.02;;;16.75;;
14007;SDS011;61651;45.508;12.232;2022-10-31T08:10:38;19.98;;;17.88;;
14007;SDS011;61651;45.508;12.232;2022-10-31T08:13:40;19.67;;;17.20;;
14007;SDS011;61651;45.508;12.232;2022-10-31T08:16:43;18.67;;;16.58;;
14007;SDS011;61651;45.508;12.232;2022-10-31T08:19:45;19.02;;;17.05;;
14007;SDS011;61651;45.508;12.232;2022-10-31T08:22:54;22.60;;;17.85;;
14007;SDS011;61651;45.508;12.232;2022-10-31T08:25:58;22.77;;;16.08;;
14007;SDS011;61651;45.508;12.232;2022-10-31T08:29:00;21.92;;;17.73;;
14007;SDS011;61651;45.508;12.232;2022-10-31T08:32:02;18.88;;;16.27;;
14007;SDS011;61651;45.508;12.232;2022-10-31T08:35:04;18.67;;;16.58;;
14007;SDS011;61651;45.508;12.232;2022-10-31T08:38:07;20.30;;;16.40;;
14007;SDS011;61651;45.508;12.232;2022-10-31T08:41:12;24.15;;;21.55;;
14007;SDS011;61651;45.508;12.232;2022-10-31T08:44:14;26.10;;;20.92;;
14007;SDS011;61651;45.508;12.232;2022-10-31T08:47:16;23.85;;;20.95;;
14007;SDS011;61651;45.508;12.232;2022-10-31T08:50:18;27.15;;;19.67;;
14007;SDS011;61651;45.508;12.232;2022-10-31T08:53:20;24.30;;;20.25;;
14007;SDS011;61651;45.508;12.232;2022-10-31T08:56:24;25.00;;;19.95;;
14007;SDS011;61651;45.508;12.232;2022-10-31T08:59:26;24.85;;;19.05;;
14007;SDS011;61651;45.508;12.232;2022-10-31T09:02:28;23.90;;;18.75;;
14007;SDS011;61651;45.508;12.232;2022-10-31T09:05:30;22.13;;;17.02;;
14007;SDS011;61651;45.508;12.232;2022-10-31T09:08:32;23.05;;;17.85;;
14007;SDS011;61651;45.508;12.232;2022-10-31T09:11:35;28.73;;;18.88;;
14007;SDS011;61651;45.508;12.232;2022-10-31T09:14:37;23.65;;;18.90;;
14007;SDS011;61651;45.508;12.232;2022-10-31T09:17:39;22.10;;;17.23;;
14007;SDS011;61651;45.508;12.232;2022-10-31T09:20:48;24.05;;;17.17;;
14007;SDS011;61651;45.508;12.232;2022-10-31T09:23:51;24.80;;;17.08;;
14007;SDS011;61651;45.508;12.232;2022-10-31T09:26:57;19.23;;;16.45;;
14007;SDS011;61651;45.508;12.232;2022-10-31T09:30:00;17.92;;;14.07;;
14007;SDS011;61651;45.508;12.232;2022-10-31T09:33:02;19.58;;;15.77;;
14007;SDS011;61651;45.508;12.232;2022-10-31T09:36:06;24.48;;;15.90;;
14007;SDS011;61651;45.508;12.232;2022-10-31T09:39:08;20.25;;;15.07;;
14007;SDS011;61651;45.508;12.232;2022-10-31T09:42:20;20.75;;;16.27;;
14007;SDS011;61651;45.508;12.232;2022-10-31T09:45:43;21.50;;;15.77;;
14007;SDS011;61651;45.508;12.232;2022-10-31T09:48:56;21.20;;;16.08;;
14007;SDS011;61651;45.508;12.232;2022-10-31T09:52:11;24.05;;;17.65;;
14007;SDS011;61651;45.508;12.232;2022-10-31T09:55:19;23.15;;;16.08;;
14007;SDS011;61651;45.508;12.232;2022-10-31T09:58:28;23.08;;;15.38;;
14007;SDS011;61651;45.508;12.232;2022-10-31T10:01:34;21.58;;;16.23;;
14007;SDS011;61651;45.508;12.232;2022-10-31T10:04:44;19.92;;;14.82;;
14007;SDS011;61651;45.508;12.232;2022-10-31T10:07:54;22.88;;;14.75;;
14007;SDS011;61651;45.508;12.232;2022-10-31T10:11:03;18.20;;;13.63;;
14007;SDS011;61651;45.508;12.232;2022-10-31T10:14:28;20.63;;;14.80;;
14007;SDS011;61651;45.508;12.232;2022-10-31T10:17:43;19.45;;;15.18;;
14007;SDS011;61651;45.508;12.232;2022-10-31T10:20:57;18.98;;;14.23;;
14007;SDS011;61651;45.508;12.232;2022-10-31T10:24:14;22.38;;;14.48;;
14007;SDS011;61651;45.508;12.232;2022-10-31T10:27:27;17.75;;;12.82;;
14007;SDS011;61651;45.508;12.232;2022-10-31T10:30:42;23.00;;;12.80;;
14007;SDS011;61651;45.508;12.232;2022-10-31T10:33:53;19.20;;;13.48;;
14007;SDS011;61651;45.508;12.232;2022-10-31T10:37:03;15.82;;;11.40;;
14007;SDS011;61651;45.508;12.232;2022-10-31T10:40:11;16.08;;;12.20;;
14007;SDS011;61651;45.508;12.232;2022-10-31T10:43:19;20.38;;;13.02;;
14007;SDS011;61651;45.508;12.232;2022-10-31T10:46:26;15.25;;;10.75;;
14007;SDS011;61651;45.508;12.232;2022-10-31T10:49:52;16.45;;;10.48;;
14007;SDS011;61651;45.508;12.232;2022-10-31T10:52:56;14.88;;;11.60;;
14007;SDS011;61651;45.508;12.232;2022-10-31T10:56:07;16.05;;;11.65;;
14007;SDS011;61651;45.508;12.232;2022-10-31T10:59:18;15.50;;;11.93;;
14007;SDS011;61651;45.508;12.232;2022-10-31T11:02:24;19.30;;;12.43;;
14007;SDS011;61651;45.508;12.232;2022-10-31T11:05:28;14.80;;;9.50;;
14007;SDS011;61651;45.508;12.232;2022-10-31T11:08:36;11.63;;;10.13;;
14007;SDS011;61651;45.508;12.232;2022-10-31T11:11:38;20.67;;;10.35;;
14007;SDS011;61651;45.508;12.232;2022-10-31T11:14:43;15.13;;;10.70;;
14007;SDS011;61651;45.508;12.232;2022-10-31T11:17:50;14.27;;;10.32;;
14007;SDS011;61651;45.508;12.232;2022-10-31T11:20:54;17.20;;;11.30;;
14007;SDS011;61651;45.508;12.232;2022-10-31T11:24:07;11.77;;;9.75;;
14007;SDS011;61651;45.508;12.232;2022-10-31T11:27:16;16.08;;;10.90;;
14007;SDS011;61651;45.508;12.232;2022-10-31T11:30:22;15.25;;;10.35;;
14007;SDS011;61651;45.508;12.232;2022-10-31T11:33:26;15.45;;;10.63;;
14007;SDS011;61651;45.508;12.232;2022-10-31T11:36:33;14.20;;;10.80;;
14007;SDS011;61651;45.508;12.232;2022-10-31T11:39:39;14.60;;;10.85;;
14007;SDS011;61651;45.508;12.232;2022-10-31T11:42:42;19.17;;;9.80;;
14007;SDS011;61651;45.508;12.232;2022-10-31T11:45:47;15.00;;;9.73;;
14007;SDS011;61651;45.508;12.232;2022-10-31T11:48:50;16.80;;;10.85;;
14007;SDS011;61651;45.508;12.232;2022-10-31T11:51:54;17.25;;;11.77;;
14007;SDS011;61651;45.508;12.232;2022-10-31T11:54:59;13.45;;;9.55;;
14007;SDS011;61651;45.508;12.232;2022-10-31T11:58:03;13.48;;;10.32;;
14007;SDS011;61651;45.508;12.232;2022-10-31T12:01:06;17.23;;;9.43;;
14007;SDS011;61651;45.508;12.232;2022-10-31T12:04:28;15.13;;;9.52;;
14007;SDS011;61651;45.508;12.232;2022-10-31T12:07:36;12.03;;;9.63;;
14007;SDS011;61651;45.508;12.232;2022-10-31T12:10:39;16.85;;;10.27;;
14007;SDS011;61651;45.508;12.232;2022-10-31T12:13:51;12.80;;;8.80;;
14007;SDS011;61651;45.508;12.232;2022-10-31T12:17:01;11.10;;;9.30;;
14007;SDS011;61651;45.508;12.232;2022-10-31T12:20:11;12.27;;;9.07;;
14007;SDS011;61651;45.508;12.232;2022-10-31T12:23:24;11.77;;;8.60;;
14007;SDS011;61651;45.508;12.232;2022-10-31T12:26:33;12.15;;;8.90;;
14007;SDS011;61651;45.508;12.232;2022-10-31T12:29:45;12.45;;;8.85;;
14007;SDS011;61651;45.508;12.232;2022-10-31T12:33:01;15.60;;;8.90;;
14007;SDS011;61651;45.508;12.232;2022-10-31T12:36:29;13.23;;;8.95;;
14007;SDS011;61651;45.508;12.232;2022-10-31T12:39:41;14.63;;;8.48;;
14007;SDS011;61651;45.508;12.232;2022-10-31T12:42:55;15.38;;;7.47;;
14007;SDS011;61651;45.508;12.232;2022-10-31T12:46:06;11.90;;;7.53;;
14007;SDS011;61651;45.508;12.232;2022-10-31T12:52:53;14.37;;;9.43;;
14007;SDS011;61651;45.508;12.232;2022-10-31T12:56:08;17.20;;;10.13;;
14007;SDS011;61651;45.508;12.232;2022-10-31T12:59:25;14.43;;;9.10;;
14007;SDS011;61651;45.508;12.232;2022-10-31T13:02:33;15.80;;;11.07;;
14007;SDS011;61651;45.508;12.232;2022-10-31T13:05:40;20.27;;;13.73;;
14007;SDS011;61651;45.508;12.232;2022-10-31T13:08:47;21.50;;;13.02;;
14007;SDS011;61651;45.508;12.232;2022-10-31T13:11:53;20.63;;;12.40;;
14007;SDS011;61651;45.508;12.232;2022-10-31T13:14:59;21.38;;;15.38;;
14007;SDS011;61651;45.508;12.232;2022-10-31T13:18:06;21.60;;;14.95;;
14007;SDS011;61651;45.508;12.232;2022-10-31T13:21:17;19.45;;;14.30;;
14007;SDS011;61651;45.508;12.232;2022-10-31T13:24:26;21.60;;;13.95;;
14007;SDS011;61651;45.508;12.232;2022-10-31T13:27:35;21.00;;;14.63;;
14007;SDS011;61651;45.508;12.232;2022-10-31T13:30:44;21.95;;;14.75;;
14007;SDS011;61651;45.508;12.232;2022-10-31T13:33:46;24.05;;;16.23;;
14007;SDS011;61651;45.508;12.232;2022-10-31T13:36:53;24.40;;;14.63;;
14007;SDS011;61651;45.508;12.232;2022-10-31T13:40:09;22.15;;;14.68;;
14007;SDS011;61651;45.508;12.232;2022-10-31T13:43:27;16.75;;;12.80;;
14007;SDS011;61651;45.508;12.232;2022-10-31T13:46:36;22.63;;;13.57;;
14007;SDS011;61651;45.508;12.232;2022-10-31T13:49:39;23.65;;;14.85;;
14007;SDS011;61651;45.508;12.232;2022-10-31T13:52:41;24.93;;;17.30;;
14007;SDS011;61651;45.508;12.232;2022-10-31T13:55:45;27.27;;;15.07;;
14007;SDS011;61651;45.508;12.232;2022-10-31T13:59:03;22.00;;;15.27;;
14007;SDS011;61651;45.508;12.232;2022-10-31T14:02:25;21.90;;;15.45;;
14007;SDS011;61651;45.508;12.232;2022-10-31T14:05:29;26.35;;;15.35;;
14007;SDS011;61651;45.508;12.232;2022-10-31T14:08:33;27.33;;;17.60;;
14007;SDS011;61651;45.508;12.232;2022-10-31T14:11:39;26.00;;;16.25;;
14007;SDS011;61651;45.508;12.232;2022-10-31T14:14:47;25.45;;;16.65;;
14007;SDS011;61651;45.508;12.232;2022-10-31T14:17:53;22.13;;;15.68;;
14007;SDS011;61651;45.508;12.232;2022-10-31T14:20:57;26.88;;;16.65;;
14007;SDS011;61651;45.508;12.232;2022-10-31T14:23:59;22.88;;;16.23;;
14007;SDS011;61651;45.508;12.232;2022-10-31T14:27:03;19.48;;;16.05;;
14007;SDS011;61651;45.508;12.232;2022-10-31T14:30:21;26.00;;;16.23;;
14007;SDS011;61651;45.508;12.232;2022-10-31T14:33:25;21.77;;;17.10;;
14007;SDS011;61651;45.508;12.232;2022-10-31T14:36:33;25.40;;;16.15;;
14007;SDS011;61651;45.508;12.232;2022-10-31T14:39:45;24.25;;;16.20;;
14007;SDS011;61651;45.508;12.232;2022-10-31T14:43:05;18.85;;;15.70;;
14007;SDS011;61651;45.508;12.232;2022-10-31T14:46:18;20.35;;;14.75;;
14007;SDS011;61651;45.508;12.232;2022-10-31T14:49:37;22.55;;;15.82;;
14007;SDS011;61651;45.508;12.232;2022-10-31T14:53:01;23.50;;;15.90;;
14007;SDS011;61651;45.508;12.232;2022-10-31T14:56:08;19.35;;;14.82;;
14007;SDS011;61651;45.508;12.232;2022-10-31T14:59:14;22.58;;;15.50;;
14007;SDS011;61651;45.508;12.232;2022-10-31T15:02:22;21.38;;;15.20;;
14007;SDS011;61651;45.508;12.232;2022-10-31T15:05:27;25.40;;;18.33;;
14007;SDS011;61651;45.508;12.232;2022-10-31T15:08:32;27.10;;;17.25;;
14007;SDS011;61651;45.508;12.232;2022-10-31T15:11:37;22.92;;;17.20;;
14007;SDS011;61651;45.508;12.232;2022-10-31T15:14:41;25.35;;;17.10;;
14007;SDS011;61651;45.508;12.232;2022-10-31T15:17:43;27.25;;;18.75;;
14007;SDS011;61651;45.508;12.232;2022-10-31T15:20:49;26.50;;;22.13;;
14007;SDS011;61651;45.508;12.232;2022-10-31T15:23:52;22.50;;;19.17;;
14007;SDS011;61651;45.508;12.232;2022-10-31T15:26:56;26.05;;;20.17;;
14007;SDS011;61651;45.508;12.232;2022-10-31T15:30:00;27.42;;;19.70;;
14007;SDS011;61651;45.508;12.232;2022-10-31T15:33:02;28.40;;;20.67;;
14007;SDS011;61651;45.508;12.232;2022-10-31T15:36:04;23.65;;;18.38;;
14007;SDS011;61651;45.508;12.232;2022-10-31T15:39:08;24.85;;;20.08;;
14007;SDS011;61651;45.508;12.232;2022-10-31T15:42:16;25.10;;;20.20;;
14007;SDS011;61651;45.508;12.232;2022-10-31T15:45:23;27.90;;;20.40;;
14007;SDS011;61651;45.508;12.232;2022-10-31T15:48:27;25.33;;;19.45;;
14007;SDS011;61651;45.508;12.232;2022-10-31T15:51:32;29.17;;;21.10;;
14007;SDS011;61651;45.508;12.232;2022-10-31T15:54:35;30.33;;;20.92;;
14007;SDS011;61651;45.508;12.232;2022-10-31T15:57:43;32.47;;;19.67;;
14007;SDS011;61651;45.508;12.232;2022-10-31T16:00:57;27.50;;;19.83;;
14007;SDS011;61651;45.508;12.232;2022-10-31T16:04:02;30.55;;;19.33;;
14007;SDS011;61651;45.508;12.232;2022-10-31T16:07:12;24.83;;;17.88;;
14007;SDS011;61651;45.508;12.232;2022-10-31T16:10:22;24.92;;;17.85;;
14007;SDS011;61651;45.508;12.232;2022-10-31T16:13:26;22.90;;;17.30;;
14007;SDS011;61651;45.508;12.232;2022-10-31T16:16:33;25.13;;;17.15;;
14007;SDS011;61651;45.508;12.232;2022-10-31T16:19:47;28.33;;;18.95;;
14007;SDS011;61651;45.508;12.232;2022-10-31T16:22:53;25.48;;;17.95;;
14007;SDS011;61651;45.508;12.232;2022-10-31T16:25:56;28.25;;;19.65;;
14007;SDS011;61651;45.508;12.232;2022-10-31T16:28:59;23.67;;;19.73;;
14007;SDS011;61651;45.508;12.232;2022-10-31T16:32:02;29.02;;;20.65;;
14007;SDS011;61651;45.508;12.232;2022-10-31T16:35:24;34.25;;;22.10;;
14007;SDS011;61651;45.508;12.232;2022-10-31T16:38:26;27.98;;;21.42;;
14007;SDS011;61651;45.508;12.232;2022-10-31T16:41:28;30.27;;;22.63;;
14007;SDS011;61651;45.508;12.232;2022-10-31T16:44:31;31.48;;;24.15;;
14007;SDS011;61651;45.508;12.232;2022-10-31T16:47:34;38.03;;;26.95;;
14007;SDS011;61651;45.508;12.232;2022-10-31T16:50:36;35.80;;;26.77;;
14007;SDS011;61651;45.508;12.232;2022-10-31T16:53:39;35.05;;;26.88;;
14007;SDS011;61651;45.508;12.232;2022-10-31T16:56:41;35.35;;;26.48;;
14007;SDS011;61651;45.508;12.232;2022-10-31T16:59:43;40.35;;;26.65;;
14007;SDS011;61651;45.508;12.232;2022-10-31T17:02:49;36.83;;;25.40;;
14007;SDS011;61651;45.508;12.232;2022-10-31T17:05:52;36.05;;;24.67;;
14007;SDS011;61651;45.508;12.232;2022-10-31T17:08:55;36.35;;;25.45;;
14007;SDS011;61651;45.508;12.232;2022-10-31T17:11:57;34.00;;;25.50;;
14007;SDS011;61651;45.508;12.232;2022-10-31T17:15:00;31.30;;;24.27;;
14007;SDS011;61651;45.508;12.232;2022-10-31T17:18:03;35.47;;;23.90;;
14007;SDS011;61651;45.508;12.232;2022-10-31T17:21:05;35.13;;;24.42;;
14007;SDS011;61651;45.508;12.232;2022-10-31T17:24:11;31.50;;;22.98;;
14007;SDS011;61651;45.508;12.232;2022-10-31T17:27:14;37.92;;;25.15;;
14007;SDS011;61651;45.508;12.232;2022-10-31T17:30:17;35.80;;;25.15;;
14007;SDS011;61651;45.508;12.232;2022-10-31T17:33:21;33.03;;;22.83;;
14007;SDS011;61651;45.508;12.232;2022-10-31T17:36:23;35.92;;;24.42;;
14007;SDS011;61651;45.508;12.232;2022-10-31T17:39:25;36.53;;;25.23;;
14007;SDS011;61651;45.508;12.232;2022-10-31T17:42:27;32.47;;;24.42;;
14007;SDS011;61651;45.508;12.232;2022-10-31T17:45:29;32.92;;;23.40;;
14007;SDS011;61651;45.508;12.232;2022-10-31T17:48:33;35.53;;;26.27;;
14007;SDS011;61651;45.508;12.232;2022-10-31T17:51:36;39.00;;;28.27;;
14007;SDS011;61651;45.508;12.232;2022-10-31T17:54:38;35.80;;;26.50;;
14007;SDS011;61651;45.508;12.232;2022-10-31T17:57:40;37.05;;;27.10;;